Terminal Aerodrome Forecast
Issued by NWS Upton, NY

Home | Current Version | Previous Version | Text Only | Print | Product List | Glossary On
Versions: 1 2 3 4 5 6 7 8 9 10 11 12 13 14 15 16 17 18 19 20 21 22 23 24 25 26 27 28 29 30 31 32 33 34 35 36
000
FTUS41 KOKX 260500
TAFJFK
TAF
KJFK 260530Z 2606/2712 03013KT P6SM BKN040
     FM261100 05016KT P6SM BKN030
      TEMPO 2611/2615 3SM -SN BR BKN015
     FM261500 05016G24KT 1SM -SN BR BKN007
     FM261800 04020G29KT 3/4SM -SN BR BKN007
     FM262200 03022G31KT 1/2SM SN FZFG VV005
     FM270300 01025G37KT 1/4SM +SN FZFG VV005
     FM270700 35027G40KT 1/4SM +SN FZFG VV004=

USA.gov is the U.S. government's official web portal to all federal, state and local government web resources and services.